createdAt,value
2023-04-28T00:00:05.623Z,3.50
2023-04-28T00:00:26.712Z,3.40
2023-04-28T00:00:47.777Z,3.60
2023-04-28T00:01:08.835Z,3.80
2023-04-28T00:01:29.889Z,3.80
2023-04-28T00:01:50.967Z,3.70
2023-04-28T00:02:12.026Z,3.50
2023-04-28T00:02:33.171Z,3.50
2023-04-28T00:02:54.419Z,3.50
2023-04-28T00:03:15.720Z,3.50
2023-04-28T00:03:37.029Z,3.90
2023-04-28T00:03:58.508Z,3.50
2023-04-28T00:04:20.620Z,3.60
2023-04-28T00:04:42.508Z,3.00
2023-04-28T00:05:03.707Z,3.40
2023-04-28T00:05:25.116Z,3.40
2023-04-28T00:05:46.343Z,3.60
2023-04-28T00:06:07.395Z,3.50
2023-04-28T00:06:28.442Z,3.60
2023-04-28T00:06:49.495Z,3.40
2023-04-28T00:07:10.658Z,3.40
2023-04-28T00:07:31.717Z,3.60
2023-04-28T00:07:52.755Z,3.60
2023-04-28T00:08:13.934Z,3.70
2023-04-28T00:08:34.996Z,3.80
2023-04-28T00:08:56.053Z,3.40
2023-04-28T00:09:17.108Z,3.40
2023-04-28T00:09:38.191Z,3.60
2023-04-28T00:09:59.478Z,3.50
2023-04-28T00:10:20.541Z,3.50
2023-04-28T00:10:41.606Z,3.60
2023-04-28T00:11:02.675Z,3.70
2023-04-28T00:11:23.705Z,3.50
2023-04-28T00:11:44.762Z,3.30
2023-04-28T00:12:05.816Z,3.40
2023-04-28T00:12:26.879Z,3.30
2023-04-28T00:12:47.931Z,3.30
2023-04-28T00:13:08.994Z,3.20
2023-04-28T00:13:30.046Z,3.10
2023-04-28T00:13:51.093Z,3.40
2023-04-28T00:14:12.163Z,3.30
2023-04-28T00:14:33.201Z,3.40
2023-04-28T00:14:54.294Z,3.70
2023-04-28T00:15:15.560Z,3.60
2023-04-28T00:15:36.613Z,3.30
2023-04-28T00:15:57.697Z,3.20
2023-04-28T00:16:18.773Z,3.40
2023-04-28T00:16:39.912Z,3.40
2023-04-28T00:17:01.138Z,3.40
2023-04-28T00:17:22.282Z,3.50
2023-04-28T00:17:43.485Z,3.30
2023-04-28T00:18:04.732Z,3.20
2023-04-28T00:18:25.851Z,3.30
2023-04-28T00:18:46.892Z,3.50
2023-04-28T00:19:07.941Z,3.20
2023-04-28T00:19:29.013Z,3.30
2023-04-28T00:19:50.089Z,3.70
2023-04-28T00:20:11.339Z,3.40
2023-04-28T00:20:32.601Z,3.30
2023-04-28T00:20:53.652Z,3.20
2023-04-28T00:21:14.846Z,3.50
2023-04-28T00:21:35.909Z,3.40
2023-04-28T00:21:56.961Z,3.50
2023-04-28T00:22:18.053Z,3.30
2023-04-28T00:22:39.093Z,3.30
2023-04-28T00:23:00.141Z,3.40
2023-04-28T00:23:21.196Z,3.40
2023-04-28T00:23:42.256Z,3.30
2023-04-28T00:24:03.335Z,3.20
2023-04-28T00:24:24.427Z,3.10
2023-04-28T00:24:45.490Z,3.40
2023-04-28T00:25:06.542Z,3.30
2023-04-28T00:25:27.811Z,3.10
2023-04-28T00:25:49.086Z,3.00
2023-04-28T00:26:10.144Z,3.10
2023-04-28T00:26:31.221Z,3.10
2023-04-28T00:26:52.271Z,3.30
2023-04-28T00:27:13.317Z,3.30
2023-04-28T00:27:34.379Z,3.30
2023-04-28T00:27:55.447Z,2.90
2023-04-28T00:28:30.491Z,3.50
2023-04-28T00:28:43.476Z,3.20
2023-04-28T00:29:04.537Z,3.40
2023-04-28T00:29:25.625Z,3.10
2023-04-28T00:29:46.646Z,3.00
2023-04-28T00:30:07.711Z,3.20
2023-04-28T00:30:28.790Z,3.10
2023-04-28T00:30:49.903Z,3.10
2023-04-28T00:31:11.002Z,2.80
2023-04-28T00:31:32.085Z,3.10
2023-04-28T00:31:53.144Z,3.00
2023-04-28T00:32:14.192Z,3.40
2023-04-28T00:32:35.288Z,3.50
2023-04-28T00:32:56.365Z,3.10
2023-04-28T00:33:17.391Z,3.00
2023-04-28T00:33:38.457Z,3.20
2023-04-28T00:33:59.503Z,3.30
2023-04-28T00:34:20.566Z,3.20
2023-04-28T00:34:41.634Z,3.20
2023-04-28T00:35:02.685Z,3.30
2023-04-28T00:35:23.748Z,3.20
2023-04-28T00:35:44.872Z,3.00
2023-04-28T00:36:05.994Z,3.40
2023-04-28T00:36:27.069Z,3.20
2023-04-28T00:36:48.131Z,3.20
2023-04-28T00:37:09.183Z,3.30
2023-04-28T00:37:30.256Z,3.60
2023-04-28T00:37:51.312Z,3.10
2023-04-28T00:38:12.385Z,3.10
2023-04-28T00:38:33.422Z,3.30
2023-04-28T00:38:54.484Z,3.10
2023-04-28T00:39:15.532Z,3.10
2023-04-28T00:39:36.581Z,3.50
2023-04-28T00:39:57.655Z,3.40
2023-04-28T00:40:18.716Z,3.10
2023-04-28T00:40:39.752Z,2.90
2023-04-28T00:41:00.857Z,3.10
2023-04-28T00:41:22.117Z,3.30
2023-04-28T00:41:43.159Z,3.10
2023-04-28T00:42:04.237Z,3.20
2023-04-28T00:42:25.295Z,3.50
2023-04-28T00:42:46.347Z,3.70
2023-04-28T00:43:07.410Z,3.40
2023-04-28T00:43:28.451Z,3.40
2023-04-28T00:43:49.522Z,3.30
2023-04-28T00:44:10.599Z,3.50
2023-04-28T00:44:31.656Z,3.30
2023-04-28T00:44:52.722Z,3.40
2023-04-28T00:45:13.774Z,3.30
2023-04-28T00:45:34.904Z,3.30
2023-04-28T00:45:55.983Z,3.40
2023-04-28T00:46:17.109Z,3.40
2023-04-28T00:46:38.359Z,3.10
2023-04-28T00:46:59.452Z,3.30
2023-04-28T00:47:20.711Z,3.40
2023-04-28T00:47:41.822Z,3.40
2023-04-28T00:48:02.880Z,3.20
2023-04-28T00:48:23.927Z,3.00
2023-04-28T00:48:45.004Z,3.20
2023-04-28T00:49:06.065Z,3.30
2023-04-28T00:49:27.142Z,3.10
2023-04-28T00:49:48.181Z,3.20
2023-04-28T00:50:09.234Z,3.30
2023-04-28T00:50:30.299Z,3.30
2023-04-28T00:50:51.394Z,3.10
2023-04-28T00:51:12.419Z,3.20
2023-04-28T00:51:33.512Z,3.00
2023-04-28T00:51:54.811Z,3.30
2023-04-28T00:52:15.831Z,3.30
2023-04-28T00:52:36.907Z,3.20
2023-04-28T00:52:57.952Z,3.00
2023-04-28T00:53:19.021Z,3.10
2023-04-28T00:53:40.063Z,3.10
2023-04-28T00:54:01.142Z,3.40
2023-04-28T00:54:22.167Z,3.00
2023-04-28T00:54:43.219Z,3.40
2023-04-28T00:55:04.289Z,3.80
2023-04-28T00:55:25.367Z,3.80
2023-04-28T00:55:46.425Z,3.70
2023-04-28T00:56:07.477Z,3.70
2023-04-28T00:56:28.557Z,3.70
2023-04-28T00:56:49.801Z,3.70
2023-04-28T00:57:10.922Z,3.90
2023-04-28T00:57:31.947Z,4.10
2023-04-28T00:57:53.011Z,3.90
2023-04-28T00:58:14.055Z,3.80
2023-04-28T00:58:35.131Z,4.10
2023-04-28T00:58:56.188Z,4.20
2023-04-28T00:59:17.236Z,4.00
2023-04-28T00:59:38.299Z,4.00
2023-04-28T00:59:59.344Z,4.30
2023-04-28T01:00:20.399Z,4.40
2023-04-28T01:00:41.453Z,4.60
2023-04-28T01:01:02.537Z,4.50
2023-04-28T01:01:23.616Z,4.40
2023-04-28T01:01:44.782Z,4.50
2023-04-28T01:02:05.898Z,4.60
2023-04-28T01:02:27.178Z,4.80
2023-04-28T01:02:48.391Z,4.90
2023-04-28T01:03:09.655Z,5.30
2023-04-28T01:03:30.941Z,5.40
2023-04-28T01:03:52.334Z,5.20
2023-04-28T01:04:13.800Z,5.00
2023-04-28T01:04:35.162Z,4.90
2023-04-28T01:04:56.272Z,4.70
2023-04-28T01:05:17.337Z,4.80
2023-04-28T01:05:38.388Z,4.30
2023-04-28T01:05:59.450Z,4.10
2023-04-28T01:06:20.503Z,4.20
2023-04-28T01:06:41.590Z,4.10
2023-04-28T01:07:02.644Z,4.00
2023-04-28T01:07:23.903Z,4.30
2023-04-28T01:07:45.198Z,4.30
2023-04-28T01:08:06.252Z,4.20
2023-04-28T01:08:27.308Z,4.30
2023-04-28T01:08:48.360Z,4.40
2023-04-28T01:09:09.422Z,4.70
2023-04-28T01:09:30.475Z,4.40
2023-04-28T01:09:51.533Z,4.70
2023-04-28T01:10:12.604Z,4.30
2023-04-28T01:10:33.659Z,4.90
2023-04-28T01:10:54.713Z,4.40
2023-04-28T01:11:15.777Z,4.10
2023-04-28T01:11:36.837Z,4.30
2023-04-28T01:11:57.877Z,4.60
2023-04-28T01:12:18.949Z,4.60
2023-04-28T01:12:40.027Z,4.20
2023-04-28T01:13:01.116Z,3.90
2023-04-28T01:13:22.184Z,4.40
2023-04-28T01:13:43.240Z,4.10
2023-04-28T01:14:04.307Z,3.80
2023-04-28T01:14:25.384Z,4.00
2023-04-28T01:14:46.410Z,4.10
2023-04-28T01:15:07.485Z,3.80
2023-04-28T01:15:28.524Z,3.50
2023-04-28T01:15:49.576Z,3.60
2023-04-28T01:16:10.647Z,3.60
2023-04-28T01:16:31.739Z,3.80
2023-04-28T01:16:52.861Z,3.70
2023-04-28T01:17:13.937Z,3.70
2023-04-28T01:17:35.064Z,3.80
2023-04-28T01:17:56.165Z,3.60
2023-04-28T01:18:17.266Z,3.60
2023-04-28T01:18:38.317Z,4.00
2023-04-28T01:18:59.367Z,3.70
2023-04-28T01:19:20.436Z,3.60
2023-04-28T01:19:41.505Z,3.80
2023-04-28T01:20:02.555Z,3.90
2023-04-28T01:20:23.619Z,3.80
2023-04-28T01:20:44.664Z,3.70
2023-04-28T01:21:05.735Z,3.80
2023-04-28T01:21:26.795Z,3.90
2023-04-28T01:21:47.842Z,3.70
2023-04-28T01:22:08.898Z,3.40
2023-04-28T01:22:29.954Z,3.60
2023-04-28T01:22:51.043Z,3.50
2023-04-28T01:23:12.113Z,3.70
2023-04-28T01:23:33.377Z,3.70
2023-04-28T01:23:54.431Z,3.90
2023-04-28T01:24:15.908Z,3.60
2023-04-28T01:24:37.225Z,3.70
2023-04-28T01:24:58.284Z,3.70
2023-04-28T01:25:19.339Z,3.60
2023-04-28T01:25:40.405Z,3.60
2023-04-28T01:26:01.457Z,3.60
2023-04-28T01:26:22.506Z,3.80
2023-04-28T01:26:43.582Z,3.70
2023-04-28T01:27:04.642Z,3.70
2023-04-28T01:27:25.681Z,3.60
2023-04-28T01:27:46.730Z,3.70
2023-04-28T01:28:07.787Z,3.70
2023-04-28T01:28:28.891Z,3.80
2023-04-28T01:28:49.963Z,3.80
2023-04-28T01:29:11.054Z,3.70
2023-04-28T01:29:32.125Z,3.70
2023-04-28T01:29:53.156Z,4.00
2023-04-28T01:30:14.224Z,3.90
2023-04-28T01:30:35.272Z,3.80
2023-04-28T01:30:56.326Z,3.70
2023-04-28T01:31:17.520Z,3.80
2023-04-28T01:31:38.680Z,3.90
2023-04-28T01:31:59.945Z,3.70
2023-04-28T01:32:21.008Z,4.20
2023-04-28T01:32:42.083Z,4.20
2023-04-28T01:33:03.158Z,3.60
2023-04-28T01:33:24.209Z,3.60
2023-04-28T01:33:45.481Z,4.20
2023-04-28T01:34:06.777Z,4.20
2023-04-28T01:34:27.823Z,4.20
2023-04-28T01:34:48.878Z,4.20
2023-04-28T01:35:09.948Z,4.20
2023-04-28T01:35:30.999Z,4.10
2023-04-28T01:35:52.057Z,4.20
2023-04-28T01:36:13.133Z,4.20
2023-04-28T01:36:36.737Z,4.40
2023-04-28T01:36:58.500Z,4.30
2023-04-28T01:37:19.564Z,4.50
2023-04-28T01:37:40.605Z,4.00
2023-04-28T01:38:01.688Z,4.10
2023-04-28T01:38:22.716Z,3.90
2023-04-28T01:38:43.779Z,4.00
2023-04-28T01:39:04.906Z,4.10
2023-04-28T01:39:25.993Z,4.30
2023-04-28T01:39:47.047Z,4.30
2023-04-28T01:40:08.106Z,4.00
2023-04-28T01:40:29.160Z,4.50
2023-04-28T01:40:50.222Z,4.30
2023-04-28T01:41:11.276Z,4.00
2023-04-28T01:41:32.342Z,4.00
2023-04-28T01:41:53.396Z,3.70
2023-04-28T01:42:14.438Z,3.90
2023-04-28T01:42:35.513Z,3.90
2023-04-28T01:42:56.567Z,4.00
2023-04-28T01:43:17.617Z,4.20
2023-04-28T01:43:38.675Z,3.90
2023-04-28T01:43:59.744Z,4.00
2023-04-28T01:44:21.020Z,3.80
2023-04-28T01:44:42.268Z,3.70
2023-04-28T01:45:03.352Z,3.80
2023-04-28T01:45:24.431Z,3.90
2023-04-28T01:45:45.496Z,3.60
2023-04-28T01:46:06.625Z,3.90
2023-04-28T01:46:27.751Z,4.30
2023-04-28T01:46:48.826Z,4.40
2023-04-28T01:47:09.870Z,4.50
2023-04-28T01:47:30.985Z,3.70
2023-04-28T01:47:52.109Z,3.60
2023-04-28T01:48:13.221Z,3.80
2023-04-28T01:48:34.258Z,3.50
2023-04-28T01:48:55.314Z,3.90
2023-04-28T01:49:16.370Z,4.00
2023-04-28T01:49:37.722Z,3.90
2023-04-28T01:49:58.833Z,3.80
2023-04-28T01:50:19.881Z,3.90
2023-04-28T01:50:40.937Z,3.90
2023-04-28T01:51:02.015Z,4.10
2023-04-28T01:51:23.090Z,3.70
2023-04-28T01:51:44.164Z,3.80
2023-04-28T01:52:05.623Z,3.60
2023-04-28T01:52:26.751Z,3.90
2023-04-28T01:52:47.799Z,4.00
2023-04-28T01:53:08.859Z,3.60
2023-04-28T01:53:29.895Z,3.60
2023-04-28T01:53:50.957Z,3.80
2023-04-28T01:54:12.016Z,3.80
2023-04-28T01:54:33.167Z,3.80
2023-04-28T01:54:54.275Z,4.40
2023-04-28T01:55:15.551Z,4.10
2023-04-28T01:55:36.601Z,3.90
2023-04-28T01:55:57.652Z,3.60
2023-04-28T01:56:18.720Z,3.60
2023-04-28T01:56:39.785Z,3.70
2023-04-28T01:57:00.864Z,3.60
2023-04-28T01:57:22.480Z,3.50
2023-04-28T01:57:43.662Z,3.40
2023-04-28T01:58:04.698Z,3.70
2023-04-28T01:58:25.754Z,3.90
2023-04-28T01:58:46.813Z,3.90
2023-04-28T01:59:07.882Z,3.60
2023-04-28T01:59:28.918Z,3.90
2023-04-28T01:59:49.979Z,3.60
2023-04-28T02:00:11.083Z,3.80
2023-04-28T02:00:32.356Z,3.80
2023-04-28T02:00:53.411Z,3.90
2023-04-28T02:01:14.483Z,3.60
2023-04-28T02:01:35.588Z,3.50
2023-04-28T02:01:56.898Z,3.90
2023-04-28T02:02:18.036Z,4.00
2023-04-28T02:02:39.189Z,4.10
2023-04-28T02:03:00.315Z,3.70
2023-04-28T02:03:21.552Z,3.40
2023-04-28T02:03:43.034Z,3.50
2023-04-28T02:04:04.282Z,3.80
2023-04-28T02:04:25.326Z,3.50
2023-04-28T02:04:46.423Z,3.60
2023-04-28T02:05:07.476Z,3.80
2023-04-28T02:05:28.732Z,3.70
2023-04-28T02:05:49.999Z,3.40
2023-04-28T02:06:11.056Z,3.70
2023-04-28T02:06:32.105Z,3.60
2023-04-28T02:06:53.178Z,3.90
2023-04-28T02:07:14.228Z,4.00
2023-04-28T02:07:35.286Z,3.60
2023-04-28T02:07:56.345Z,4.00
2023-04-28T02:08:17.424Z,3.70
2023-04-28T02:08:38.461Z,3.90
2023-04-28T02:08:59.512Z,4.00
2023-04-28T02:09:20.581Z,4.20
2023-04-28T02:09:41.632Z,3.90
2023-04-28T02:10:02.689Z,4.00
2023-04-28T02:10:23.750Z,4.00
2023-04-28T02:10:44.851Z,4.40
2023-04-28T02:11:06.129Z,4.40
2023-04-28T02:11:27.193Z,4.00
2023-04-28T02:11:48.233Z,4.00
2023-04-28T02:12:09.296Z,4.00
2023-04-28T02:12:30.345Z,3.90
2023-04-28T02:12:51.401Z,4.10
2023-04-28T02:13:12.434Z,3.70
2023-04-28T02:13:33.492Z,3.60
2023-04-28T02:13:54.560Z,3.50
2023-04-28T02:14:15.925Z,3.90
2023-04-28T02:14:37.400Z,3.80
2023-04-28T02:14:58.453Z,3.90
2023-04-28T02:15:19.512Z,3.80
2023-04-28T02:15:40.578Z,4.10
2023-04-28T02:16:01.772Z,4.00
2023-04-28T02:16:23.165Z,3.40
2023-04-28T02:16:44.217Z,3.90
2023-04-28T02:17:05.280Z,4.20
2023-04-28T02:17:26.368Z,4.00
2023-04-28T02:17:47.430Z,3.70
2023-04-28T02:18:08.592Z,4.00
2023-04-28T02:18:29.754Z,4.40
2023-04-28T02:18:50.787Z,4.10
2023-04-28T02:19:11.841Z,3.90
2023-04-28T02:19:32.906Z,3.90
2023-04-28T02:20:14.971Z,4.00
2023-04-28T02:20:36.030Z,4.00
2023-04-28T02:20:57.095Z,4.00
2023-04-28T02:21:18.355Z,4.00
2023-04-28T02:21:39.446Z,4.10
2023-04-28T02:22:00.494Z,4.10
2023-04-28T02:22:21.553Z,3.90
2023-04-28T02:22:42.610Z,3.80
2023-04-28T02:23:03.664Z,3.80
2023-04-28T02:23:24.753Z,3.80
2023-04-28T02:23:45.786Z,4.10
2023-04-28T02:24:06.858Z,3.80
2023-04-28T02:24:27.917Z,3.90
2023-04-28T02:24:48.969Z,4.00
2023-04-28T02:25:10.040Z,4.20
2023-04-28T02:25:31.107Z,4.10
2023-04-28T02:25:52.148Z,4.20
2023-04-28T02:26:13.216Z,4.10
2023-04-28T02:26:34.467Z,4.30
2023-04-28T02:26:55.731Z,4.30
2023-04-28T02:27:16.786Z,4.30
2023-04-28T02:27:37.842Z,4.30
2023-04-28T02:27:58.913Z,4.00
2023-04-28T02:28:20.018Z,4.70
2023-04-28T02:28:41.083Z,4.40
2023-04-28T02:29:02.132Z,4.70
2023-04-28T02:29:23.198Z,4.40
2023-04-28T02:29:44.240Z,4.30
2023-04-28T02:30:05.299Z,4.20
2023-04-28T02:30:26.357Z,4.70
2023-04-28T02:30:47.464Z,4.70
2023-04-28T02:31:08.656Z,4.90
2023-04-28T02:31:29.776Z,5.00
2023-04-28T02:31:50.893Z,4.70
2023-04-28T02:32:11.989Z,4.60
2023-04-28T02:32:33.049Z,4.60
2023-04-28T02:32:54.206Z,4.60
2023-04-28T02:33:15.307Z,4.90
2023-04-28T02:33:36.361Z,4.50
2023-04-28T02:33:57.429Z,4.60
2023-04-28T02:34:18.639Z,4.40
2023-04-28T02:34:39.668Z,4.70
2023-04-28T02:35:00.724Z,4.50
2023-04-28T02:35:21.776Z,4.60
2023-04-28T02:35:42.828Z,4.70
2023-04-28T02:36:03.890Z,4.70
2023-04-28T02:36:24.963Z,5.20
2023-04-28T02:36:46.012Z,5.10
2023-04-28T02:37:07.280Z,4.90
2023-04-28T02:37:28.378Z,4.90
2023-04-28T02:37:49.431Z,5.00
2023-04-28T02:38:10.483Z,5.00
2023-04-28T02:38:31.575Z,4.90
2023-04-28T02:38:52.601Z,5.00
2023-04-28T02:39:13.671Z,4.80
2023-04-28T02:39:34.725Z,4.90
2023-04-28T02:39:55.791Z,4.80
2023-04-28T02:40:16.866Z,5.20
2023-04-28T02:40:37.914Z,5.30
2023-04-28T02:40:58.968Z,5.10
2023-04-28T02:41:20.017Z,5.20
2023-04-28T02:41:41.073Z,5.00
2023-04-28T02:42:02.123Z,5.00
2023-04-28T02:42:23.227Z,4.90
2023-04-28T02:42:44.516Z,5.00
2023-04-28T02:43:05.595Z,5.10
2023-04-28T02:43:26.646Z,4.80
2023-04-28T02:43:47.717Z,4.70
2023-04-28T02:44:08.760Z,5.00
2023-04-28T02:44:29.845Z,5.10
2023-04-28T02:44:50.944Z,5.00
2023-04-28T02:45:12.009Z,5.10
2023-04-28T02:45:33.027Z,4.90
2023-04-28T02:45:54.087Z,4.90
2023-04-28T02:46:15.213Z,5.50
2023-04-28T02:46:36.303Z,5.50
2023-04-28T02:46:57.440Z,5.50
2023-04-28T02:47:18.492Z,5.40
2023-04-28T02:47:39.621Z,5.00
2023-04-28T02:48:00.789Z,4.90
2023-04-28T02:48:21.838Z,5.10
2023-04-28T02:48:42.909Z,5.20
2023-04-28T02:49:03.962Z,5.30
2023-04-28T02:49:25.025Z,5.10
2023-04-28T02:49:46.082Z,5.10
2023-04-28T02:50:07.137Z,5.20
2023-04-28T02:50:28.204Z,5.30
2023-04-28T02:50:49.252Z,5.10
2023-04-28T02:51:10.308Z,5.30
2023-04-28T02:51:31.380Z,5.50
2023-04-28T02:51:52.432Z,5.50
2023-04-28T02:52:13.491Z,5.30
2023-04-28T02:52:34.548Z,5.50
2023-04-28T02:52:55.674Z,5.40
2023-04-28T02:53:16.764Z,5.40
2023-04-28T02:53:37.845Z,5.60
2023-04-28T02:53:58.885Z,5.40
2023-04-28T02:54:19.958Z,5.10
2023-04-28T02:54:41.023Z,5.00
2023-04-28T02:55:02.073Z,5.40
2023-04-28T02:55:23.130Z,5.30
2023-04-28T02:55:44.208Z,5.60
2023-04-28T02:56:05.262Z,5.40
2023-04-28T02:56:26.291Z,5.40
2023-04-28T02:56:47.350Z,5.80
2023-04-28T02:57:08.423Z,5.40
2023-04-28T02:57:29.481Z,5.20
2023-04-28T02:57:50.610Z,4.80
2023-04-28T02:58:11.653Z,5.20
2023-04-28T02:58:32.746Z,5.50
2023-04-28T02:58:53.803Z,5.20
2023-04-28T02:59:14.855Z,5.00
2023-04-28T02:59:35.905Z,5.70
2023-04-28T02:59:56.994Z,5.10
2023-04-28T03:00:18.027Z,5.00
2023-04-28T03:00:39.084Z,5.50
2023-04-28T03:01:00.212Z,5.70
2023-04-28T03:01:21.333Z,5.60
2023-04-28T03:01:42.460Z,5.20
2023-04-28T03:02:03.494Z,5.40
2023-04-28T03:02:24.608Z,5.30
2023-04-28T03:02:45.750Z,5.10
2023-04-28T03:03:06.875Z,5.20
2023-04-28T03:03:28.110Z,5.60
2023-04-28T03:03:49.409Z,5.60
2023-04-28T03:04:10.809Z,5.60
2023-04-28T03:04:32.088Z,5.80
2023-04-28T03:04:53.159Z,5.50
2023-04-28T03:05:14.196Z,5.20
2023-04-28T03:05:35.247Z,5.20
2023-04-28T03:05:56.316Z,5.50
2023-04-28T03:06:17.364Z,5.80
2023-04-28T03:06:38.421Z,5.30
2023-04-28T03:06:59.480Z,5.50
2023-04-28T03:07:20.536Z,6.10
2023-04-28T03:07:41.590Z,5.40
2023-04-28T03:08:02.651Z,5.00
2023-04-28T03:08:23.729Z,5.60
2023-04-28T03:08:44.853Z,5.50
2023-04-28T03:09:05.968Z,5.90
2023-04-28T03:09:27.044Z,5.80
2023-04-28T03:09:48.124Z,5.70
2023-04-28T03:10:09.190Z,5.60
2023-04-28T03:10:30.235Z,6.00
2023-04-28T03:10:51.333Z,5.60
2023-04-28T03:11:12.422Z,5.50
2023-04-28T03:11:33.474Z,5.10
2023-04-28T03:11:54.532Z,6.00
2023-04-28T03:12:15.584Z,5.80
2023-04-28T03:12:36.647Z,5.20
2023-04-28T03:12:57.728Z,5.30
2023-04-28T03:13:18.761Z,5.70
2023-04-28T03:13:39.827Z,5.60
2023-04-28T03:14:01.121Z,5.60
2023-04-28T03:14:22.228Z,5.70
2023-04-28T03:14:43.269Z,5.50
2023-04-28T03:15:04.327Z,5.40
2023-04-28T03:15:25.386Z,5.40
2023-04-28T03:15:46.436Z,5.80
2023-04-28T03:16:07.502Z,5.80
2023-04-28T03:16:28.666Z,5.60
2023-04-28T03:16:49.909Z,5.50
2023-04-28T03:17:11.139Z,5.70
2023-04-28T03:17:32.249Z,5.50
2023-04-28T03:17:53.391Z,5.40
2023-04-28T03:18:14.528Z,5.80
2023-04-28T03:18:35.591Z,5.60
2023-04-28T03:18:56.657Z,5.70
2023-04-28T03:19:17.934Z,5.60
2023-04-28T03:19:39.214Z,5.70
2023-04-28T03:20:00.273Z,5.90
2023-04-28T03:20:21.351Z,5.90
2023-04-28T03:20:42.379Z,6.00
2023-04-28T03:21:03.458Z,5.60
2023-04-28T03:21:24.496Z,5.20
2023-04-28T03:21:45.555Z,5.00
2023-04-28T03:22:06.619Z,5.20
2023-04-28T03:22:27.672Z,5.30
2023-04-28T03:22:48.733Z,5.50
2023-04-28T03:23:09.789Z,5.10
2023-04-28T03:23:30.839Z,5.40
2023-04-28T03:23:51.918Z,5.50
2023-04-28T03:24:13.015Z,5.70
2023-04-28T03:24:34.084Z,5.40
2023-04-28T03:24:55.167Z,5.90
2023-04-28T03:25:16.228Z,5.80
2023-04-28T03:25:37.289Z,5.50
2023-04-28T03:25:58.362Z,5.80
2023-04-28T03:26:19.414Z,5.80
2023-04-28T03:26:40.484Z,5.60
2023-04-28T03:27:01.525Z,5.60
2023-04-28T03:27:22.584Z,5.90
2023-04-28T03:27:43.648Z,5.70
2023-04-28T03:28:04.697Z,5.40
2023-04-28T03:28:25.748Z,5.50
2023-04-28T03:28:46.811Z,5.50
2023-04-28T03:29:07.864Z,5.90
2023-04-28T03:29:28.927Z,6.50
2023-04-28T03:29:50.005Z,5.70
2023-04-28T03:30:11.281Z,5.70
2023-04-28T03:30:32.354Z,6.00
2023-04-28T03:30:53.405Z,6.10
2023-04-28T03:31:14.472Z,5.80
2023-04-28T03:31:35.520Z,6.00
2023-04-28T03:31:56.665Z,5.90
2023-04-28T03:32:17.860Z,5.60
2023-04-28T03:32:38.947Z,5.60
2023-04-28T03:33:00.063Z,5.60
2023-04-28T03:33:21.139Z,6.10
2023-04-28T03:33:42.180Z,6.00
2023-04-28T03:34:03.251Z,6.10
2023-04-28T03:34:24.320Z,5.40
2023-04-28T03:34:45.373Z,5.30
2023-04-28T03:35:06.492Z,5.80
2023-04-28T03:35:27.580Z,5.80
2023-04-28T03:35:48.633Z,5.70
2023-04-28T03:36:09.699Z,5.60
2023-04-28T03:36:30.774Z,5.70
2023-04-28T03:36:51.824Z,5.70
2023-04-28T03:37:12.886Z,5.50
2023-04-28T03:37:33.935Z,5.70
2023-04-28T03:37:54.992Z,5.50
2023-04-28T03:38:16.059Z,5.30
2023-04-28T03:38:37.113Z,5.30
2023-04-28T03:38:58.188Z,5.40
2023-04-28T03:39:19.226Z,5.40
2023-04-28T03:39:40.285Z,5.50
2023-04-28T03:40:01.341Z,5.30
2023-04-28T03:40:22.427Z,5.50
2023-04-28T03:40:43.556Z,5.50
2023-04-28T03:41:04.583Z,6.40
2023-04-28T03:41:25.648Z,5.90
2023-04-28T03:41:46.713Z,5.70
2023-04-28T03:42:07.753Z,6.40
2023-04-28T03:42:28.814Z,5.80
2023-04-28T03:42:49.901Z,5.70
2023-04-28T03:43:10.948Z,5.90
2023-04-28T03:43:32.009Z,6.10
2023-04-28T03:43:53.074Z,5.70
2023-04-28T03:44:14.216Z,5.60
2023-04-28T03:44:35.387Z,5.60
2023-04-28T03:44:56.432Z,5.50
2023-04-28T03:45:17.489Z,6.00
2023-04-28T03:45:39.067Z,6.50
2023-04-28T03:46:00.494Z,5.70
2023-04-28T03:46:22.005Z,5.80
2023-04-28T03:46:43.985Z,6.00
2023-04-28T03:47:05.580Z,5.60
2023-04-28T03:47:27.450Z,6.10
2023-04-28T03:47:48.539Z,5.70
2023-04-28T03:48:10.108Z,5.70
2023-04-28T03:48:32.051Z,5.50
2023-04-28T03:48:53.273Z,5.80
2023-04-28T03:49:14.354Z,6.30
2023-04-28T03:49:35.423Z,5.70
2023-04-28T03:49:56.480Z,5.70
2023-04-28T03:50:17.536Z,5.90
2023-04-28T03:53:55.530Z,5.80
2023-04-28T03:54:16.834Z,6.00
2023-04-28T03:54:38.067Z,5.80
2023-04-28T03:54:59.158Z,6.10
2023-04-28T03:55:20.262Z,5.90
2023-04-28T03:55:41.344Z,5.60
2023-04-28T03:56:07.428Z,5.80
2023-04-28T03:56:28.580Z,5.90
2023-04-28T03:56:54.555Z,6.20
2023-04-28T03:57:15.671Z,6.20
2023-04-28T03:57:36.824Z,6.30
2023-04-28T03:57:57.889Z,6.20
2023-04-28T03:58:18.977Z,6.20
2023-04-28T03:58:40.081Z,6.10
2023-04-28T03:59:01.205Z,6.00
2023-04-28T03:59:22.298Z,6.30
2023-04-28T03:59:43.391Z,6.50
2023-04-28T04:00:04.493Z,6.60
2023-04-28T04:00:25.592Z,6.40
2023-04-28T04:00:46.712Z,6.00
2023-04-28T04:01:07.863Z,5.60
2023-04-28T04:01:29.290Z,6.30
2023-04-28T04:01:50.386Z,6.50
2023-04-28T04:02:11.506Z,6.60
2023-04-28T04:02:32.842Z,6.30
2023-04-28T04:02:54.098Z,6.20
2023-04-28T04:03:15.423Z,6.40
2023-04-28T04:03:36.808Z,6.60
2023-04-28T04:04:02.782Z,6.40
2023-04-28T04:04:24.507Z,6.30
2023-04-28T04:04:46.125Z,6.00
2023-04-28T04:05:07.489Z,6.20
2023-04-28T04:05:28.928Z,6.10
2023-04-28T04:05:54.875Z,6.00
2023-04-28T04:06:16.054Z,6.10
2023-04-28T04:06:37.151Z,5.90
2023-04-28T04:06:58.247Z,6.50
2023-04-28T04:07:19.331Z,6.10
2023-04-28T04:07:40.438Z,6.50
2023-04-28T04:08:01.531Z,6.60
2023-04-28T04:08:22.624Z,6.60
2023-04-28T04:08:43.723Z,6.20
2023-04-28T04:09:04.835Z,6.10
2023-04-28T04:09:30.844Z,5.80
2023-04-28T04:09:51.913Z,6.10
2023-04-28T04:10:13.007Z,6.50
2023-04-28T04:10:34.117Z,6.80
2023-04-28T04:10:55.222Z,6.30
2023-04-28T04:11:16.646Z,6.10
2023-04-28T04:11:38.087Z,6.60
2023-04-28T04:12:04.102Z,6.40
2023-04-28T04:12:25.196Z,6.40
2023-04-28T04:12:46.274Z,6.10
2023-04-28T04:13:07.404Z,6.60
2023-04-28T04:13:28.466Z,6.50
2023-04-28T04:13:49.570Z,6.40
2023-04-28T04:14:10.674Z,6.60
2023-04-28T04:14:31.800Z,6.40
2023-04-28T04:14:52.915Z,6.30
2023-04-28T04:15:14.015Z,6.70
2023-04-28T04:15:35.116Z,6.40
2023-04-28T04:15:56.201Z,6.70
2023-04-28T04:16:17.645Z,6.70
2023-04-28T04:16:38.818Z,6.40
2023-04-28T04:17:04.776Z,6.40
2023-04-28T04:17:25.941Z,6.70
2023-04-28T04:17:47.013Z,6.60
2023-04-28T04:18:08.140Z,6.50
2023-04-28T04:18:29.197Z,6.20
2023-04-28T04:18:50.287Z,6.80
2023-04-28T04:19:11.391Z,6.60
2023-04-28T04:19:37.424Z,6.40
2023-04-28T04:19:58.514Z,6.60
2023-04-28T04:20:19.615Z,7.00
2023-04-28T04:20:40.729Z,6.40
2023-04-28T04:21:01.788Z,6.30
2023-04-28T04:21:22.952Z,6.50
2023-04-28T04:21:44.387Z,5.90
2023-04-28T04:22:05.488Z,6.50
2023-04-28T04:22:26.576Z,6.50
2023-04-28T04:22:52.576Z,6.40
2023-04-28T04:23:18.561Z,6.10
2023-04-28T04:23:39.652Z,6.30
2023-04-28T04:24:00.736Z,6.40
2023-04-28T04:24:26.810Z,7.00
2023-04-28T04:24:52.798Z,6.80
2023-04-28T04:25:13.898Z,6.50
2023-04-28T04:25:34.992Z,7.00
2023-04-28T04:25:56.088Z,6.90
2023-04-28T04:26:17.231Z,6.60
2023-04-28T04:26:43.258Z,6.10
2023-04-28T04:27:04.443Z,6.40
2023-04-28T04:27:25.506Z,6.00
2023-04-28T04:27:51.502Z,7.00
2023-04-28T04:28:12.596Z,6.50
2023-04-28T04:28:33.712Z,6.40
2023-04-28T04:28:54.775Z,6.50
2023-04-28T04:29:15.921Z,6.50
2023-04-28T04:29:37.024Z,6.60
2023-04-28T04:29:58.111Z,6.60
2023-04-28T04:30:19.225Z,7.10
2023-04-28T04:30:40.358Z,6.70
2023-04-28T04:31:01.496Z,6.50
2023-04-28T04:31:22.838Z,6.40
2023-04-28T04:31:44.457Z,6.40
2023-04-28T04:32:05.872Z,6.20
2023-04-28T04:32:26.991Z,6.30
2023-04-28T04:32:48.102Z,6.20
2023-04-28T04:33:09.429Z,6.50
2023-04-28T04:33:35.222Z,6.60
2023-04-28T04:33:56.333Z,6.20
2023-04-28T04:34:17.639Z,6.20
2023-04-28T04:34:43.440Z,5.70
2023-04-28T04:35:09.441Z,5.80
2023-04-28T04:35:30.536Z,6.40
2023-04-28T04:35:56.518Z,6.20
2023-04-28T04:36:17.628Z,6.30
2023-04-28T04:36:38.737Z,6.50
2023-04-28T04:37:00.146Z,6.20
2023-04-28T04:37:21.593Z,6.20
2023-04-28T04:37:42.672Z,6.20
2023-04-28T04:38:08.656Z,6.00
2023-04-28T04:38:29.754Z,6.30
2023-04-28T04:38:52.540Z,6.10
2023-04-28T04:39:15.370Z,6.00
2023-04-28T04:39:36.465Z,6.10
2023-04-28T04:39:57.585Z,5.90
2023-04-28T04:40:18.655Z,6.00
2023-04-28T04:40:39.769Z,5.60
2023-04-28T04:41:00.861Z,5.70
2023-04-28T04:41:21.940Z,6.20
2023-04-28T04:41:43.035Z,6.30
2023-04-28T04:42:16.760Z,6.00
2023-04-28T04:42:31.498Z,6.20
2023-04-28T04:42:52.597Z,5.90
2023-04-28T04:43:13.721Z,6.00
2023-04-28T04:43:39.687Z,5.60
2023-04-28T04:44:00.777Z,6.10
2023-04-28T04:44:21.866Z,6.30
2023-04-28T04:44:42.958Z,6.50
2023-04-28T04:45:04.045Z,6.30
2023-04-28T04:45:25.163Z,5.80
2023-04-28T04:45:51.130Z,6.10
2023-04-28T04:46:12.241Z,6.10
2023-04-28T04:46:33.384Z,6.10